Current Weather

Austin Exec

Austin, Texas (KEDC)

Report from: Tuesday, September 27, 2022 12:15 AM UTC
Current time: Tuesday, September 27, 2022 12:56 AM UTC

Nearby weather
Weather history
Weather forecast

Temperature28.0°C (82.4°F)
Heat index27.0°C (80.6°F)
Dew point4.0°C (39.2°F)
Winds 9 kts (4.6 m/s, 10.4 mph) Northeast (50°)
Visibility10 mi. (16.1 km)
Clouds Sky clear
Altimeter30.02 in.Hg (1017 mB)
Relative humidity22 %
Density altitude1,508 ft. (460 m)
Remarks Fully automated report
Automated weather observing station with precipitation discriminator
Flight conditions Visual Meteorological Conditions
Raw dataKEDC 270015Z AUTO 05009KT 10SM CLR 28/04 A3002 RMK AO2
An unhandled exception has occurred. See browser dev tools for details. Reload 🗙